sensor_id;sensor_type;location;lat;lon;timestamp;pressure;altitude;pressure_sealevel;temperature;humidity
33161;BME280;19522;45.656;11.302;2023-04-29T00:00:40;98268.09;;;11.79;75.07
33161;BME280;19522;45.656;11.302;2023-04-29T00:03:05;98230.75;;;11.60;75.15
33161;BME280;19522;45.656;11.302;2023-04-29T00:05:31;98273.78;;;11.84;75.06
33161;BME280;19522;45.656;11.302;2023-04-29T00:07:56;98243.75;;;11.64;74.49
33161;BME280;19522;45.656;11.302;2023-04-29T00:10:22;98276.91;;;11.81;75.06
33161;BME280;19522;45.656;11.302;2023-04-29T00:12:47;98264.75;;;11.77;74.78
33161;BME280;19522;45.656;11.302;2023-04-29T00:15:13;98281.28;;;11.76;75.23
33161;BME280;19522;45.656;11.302;2023-04-29T00:17:39;98238.88;;;11.53;75.48
33161;BME280;19522;45.656;11.302;2023-04-29T00:20:05;98250.31;;;11.77;75.52
33161;BME280;19522;45.656;11.302;2023-04-29T00:22:31;98245.72;;;11.77;75.63
33161;BME280;19522;45.656;11.302;2023-04-29T00:24:57;98248.28;;;11.85;75.50
33161;BME280;19522;45.656;11.302;2023-04-29T00:27:22;98172.09;;;11.44;75.44
33161;BME280;19522;45.656;11.302;2023-04-29T00:29:48;98243.88;;;11.84;75.62
33161;BME280;19522;45.656;11.302;2023-04-29T00:32:13;98219.91;;;11.66;75.90
33161;BME280;19522;45.656;11.302;2023-04-29T00:34:39;98241.63;;;11.95;75.60
33161;BME280;19522;45.656;11.302;2023-04-29T00:37:04;98244.72;;;11.92;75.58
33161;BME280;19522;45.656;11.302;2023-04-29T00:39:30;98261.91;;;11.92;75.57
33161;BME280;19522;45.656;11.302;2023-04-29T00:41:55;98265.88;;;11.54;77.22
33161;BME280;19522;45.656;11.302;2023-04-29T00:44:20;98241.13;;;11.43;77.41
33161;BME280;19522;45.656;11.302;2023-04-29T00:46:46;98269.06;;;11.65;77.64
33161;BME280;19522;45.656;11.302;2023-04-29T00:49:12;98263.56;;;11.87;76.48
33161;BME280;19522;45.656;11.302;2023-04-29T00:51:39;98184.41;;;11.04;77.61
33161;BME280;19522;45.656;11.302;2023-04-29T00:54:06;98270.28;;;11.56;78.38
33161;BME280;19522;45.656;11.302;2023-04-29T00:56:34;98250.44;;;11.62;77.57
33161;BME280;19522;45.656;11.302;2023-04-29T00:59:01;98273.69;;;11.71;78.14
33161;BME280;19522;45.656;11.302;2023-04-29T01:01:28;98260.00;;;11.51;77.88
33161;BME280;19522;45.656;11.302;2023-04-29T01:03:54;98267.56;;;11.56;79.13
33161;BME280;19522;45.656;11.302;2023-04-29T01:06:48;98260.28;;;11.63;79.00
33161;BME280;19522;45.656;11.302;2023-04-29T01:12:07;98254.06;;;11.76;78.18
33161;BME280;19522;45.656;11.302;2023-04-29T01:14:34;98251.56;;;11.74;77.89
33161;BME280;19522;45.656;11.302;2023-04-29T01:17:05;98247.19;;;11.80;77.44
33161;BME280;19522;45.656;11.302;2023-04-29T01:19:47;98238.66;;;11.90;77.25
33161;BME280;19522;45.656;11.302;2023-04-29T01:22:12;98255.88;;;11.97;77.61
33161;BME280;19522;45.656;11.302;2023-04-29T01:24:39;98238.50;;;11.98;77.42
33161;BME280;19522;45.656;11.302;2023-04-29T01:27:22;98238.75;;;12.03;77.01
33161;BME280;19522;45.656;11.302;2023-04-29T01:32:51;98233.34;;;12.10;76.93
33161;BME280;19522;45.656;11.302;2023-04-29T01:35:43;98216.34;;;12.01;76.74
33161;BME280;19522;45.656;11.302;2023-04-29T01:38:28;98199.38;;;11.99;76.84
33161;BME280;19522;45.656;11.302;2023-04-29T01:43:55;98231.50;;;12.24;76.13
33161;BME280;19522;45.656;11.302;2023-04-29T01:46:22;98236.09;;;12.23;76.61
33161;BME280;19522;45.656;11.302;2023-04-29T01:48:48;98231.88;;;12.14;76.62
33161;BME280;19522;45.656;11.302;2023-04-29T01:51:16;98247.13;;;12.08;77.24
33161;BME280;19522;45.656;11.302;2023-04-29T01:53:42;98202.00;;;11.85;77.08
33161;BME280;19522;45.656;11.302;2023-04-29T01:56:07;98248.84;;;12.16;77.19
33161;BME280;19522;45.656;11.302;2023-04-29T01:58:33;98233.19;;;12.25;76.99
33161;BME280;19522;45.656;11.302;2023-04-29T02:00:58;98190.84;;;12.15;76.17
33161;BME280;19522;45.656;11.302;2023-04-29T02:03:24;98228.34;;;12.20;76.71
33161;BME280;19522;45.656;11.302;2023-04-29T02:05:49;98226.53;;;11.92;77.92
33161;BME280;19522;45.656;11.302;2023-04-29T02:08:18;98218.25;;;11.72;79.49
33161;BME280;19522;45.656;11.302;2023-04-29T02:10:57;98216.63;;;11.78;79.62
33161;BME280;19522;45.656;11.302;2023-04-29T02:13:24;98220.28;;;11.57;80.62
33161;BME280;19522;45.656;11.302;2023-04-29T02:15:49;98205.22;;;11.54;81.48
33161;BME280;19522;45.656;11.302;2023-04-29T02:18:15;98147.75;;;11.29;81.39
33161;BME280;19522;45.656;11.302;2023-04-29T02:20:41;98198.81;;;11.40;82.05
33161;BME280;19522;45.656;11.302;2023-04-29T02:23:07;98191.06;;;11.02;83.01
33161;BME280;19522;45.656;11.302;2023-04-29T02:25:33;98215.50;;;11.30;83.78
33161;BME280;19522;45.656;11.302;2023-04-29T02:27:59;98175.94;;;11.21;83.49
33161;BME280;19522;45.656;11.302;2023-04-29T02:30:24;98195.34;;;11.95;80.72
33161;BME280;19522;45.656;11.302;2023-04-29T02:32:50;98185.84;;;12.19;78.60
33161;BME280;19522;45.656;11.302;2023-04-29T02:35:15;98187.44;;;12.00;79.49
33161;BME280;19522;45.656;11.302;2023-04-29T02:37:41;98174.09;;;11.70;80.67
33161;BME280;19522;45.656;11.302;2023-04-29T02:40:07;98171.56;;;11.62;81.52
33161;BME280;19522;45.656;11.302;2023-04-29T02:42:33;98184.38;;;11.68;81.27
33161;BME280;19522;45.656;11.302;2023-04-29T02:44:58;98148.06;;;11.47;80.94
33161;BME280;19522;45.656;11.302;2023-04-29T02:47:24;98207.00;;;11.75;81.62
33161;BME280;19522;45.656;11.302;2023-04-29T02:49:49;98191.91;;;11.73;81.63
33161;BME280;19522;45.656;11.302;2023-04-29T02:52:15;98213.19;;;11.97;80.92
33161;BME280;19522;45.656;11.302;2023-04-29T02:54:41;98163.03;;;11.72;80.37
33161;BME280;19522;45.656;11.302;2023-04-29T02:57:07;98197.50;;;11.99;80.34
33161;BME280;19522;45.656;11.302;2023-04-29T02:59:33;98209.59;;;11.97;80.66
33161;BME280;19522;45.656;11.302;2023-04-29T03:01:58;98204.16;;;11.97;80.34
33161;BME280;19522;45.656;11.302;2023-04-29T03:04:24;98187.84;;;11.97;80.35
33161;BME280;19522;45.656;11.302;2023-04-29T03:06:49;98195.63;;;12.07;80.03
33161;BME280;19522;45.656;11.302;2023-04-29T03:09:15;98189.97;;;12.02;80.20
33161;BME280;19522;45.656;11.302;2023-04-29T03:11:43;98214.09;;;12.18;79.72
33161;BME280;19522;45.656;11.302;2023-04-29T03:14:12;98224.09;;;12.04;80.35
33161;BME280;19522;45.656;11.302;2023-04-29T03:16:41;98212.19;;;12.12;79.86
33161;BME280;19522;45.656;11.302;2023-04-29T03:19:06;98219.25;;;11.64;82.15
33161;BME280;19522;45.656;11.302;2023-04-29T03:21:32;98204.69;;;11.37;83.86
33161;BME280;19522;45.656;11.302;2023-04-29T03:23:57;98228.66;;;11.62;84.09
33161;BME280;19522;45.656;11.302;2023-04-29T03:26:23;98176.13;;;11.54;82.39
33161;BME280;19522;45.656;11.302;2023-04-29T03:28:49;98214.13;;;11.76;82.50
33161;BME280;19522;45.656;11.302;2023-04-29T03:31:15;98222.13;;;11.91;82.02
33161;BME280;19522;45.656;11.302;2023-04-29T03:33:41;98218.97;;;11.88;82.33
33161;BME280;19522;45.656;11.302;2023-04-29T03:36:07;98192.84;;;11.51;82.71
33161;BME280;19522;45.656;11.302;2023-04-29T03:38:33;98223.78;;;11.85;82.95
33161;BME280;19522;45.656;11.302;2023-04-29T03:40:58;98178.97;;;11.81;81.95
33161;BME280;19522;45.656;11.302;2023-04-29T03:43:25;98200.66;;;12.03;81.44
33161;BME280;19522;45.656;11.302;2023-04-29T03:45:50;98165.41;;;11.95;80.89
33161;BME280;19522;45.656;11.302;2023-04-29T03:48:16;98195.44;;;12.15;80.92
33161;BME280;19522;45.656;11.302;2023-04-29T03:50:41;98177.84;;;12.04;80.58
33161;BME280;19522;45.656;11.302;2023-04-29T03:53:07;98189.19;;;12.14;80.13
33161;BME280;19522;45.656;11.302;2023-04-29T03:55:33;98204.91;;;12.26;80.41
33161;BME280;19522;45.656;11.302;2023-04-29T03:57:58;98212.47;;;12.30;80.46
33161;BME280;19522;45.656;11.302;2023-04-29T04:00:24;98185.84;;;12.19;80.18
33161;BME280;19522;45.656;11.302;2023-04-29T04:02:51;98198.41;;;12.20;81.26
33161;BME280;19522;45.656;11.302;2023-04-29T04:05:16;98202.81;;;12.28;81.28
33161;BME280;19522;45.656;11.302;2023-04-29T04:07:45;98199.69;;;12.31;80.98
33161;BME280;19522;45.656;11.302;2023-04-29T04:10:11;98156.06;;;12.04;80.81
33161;BME280;19522;45.656;11.302;2023-04-29T04:12:36;98182.06;;;12.27;80.87
33161;BME280;19522;45.656;11.302;2023-04-29T04:15:01;98170.91;;;12.08;80.53
33161;BME280;19522;45.656;11.302;2023-04-29T04:17:28;98135.03;;;11.84;80.33
33161;BME280;19522;45.656;11.302;2023-04-29T04:19:54;98196.75;;;12.32;80.15
33161;BME280;19522;45.656;11.302;2023-04-29T04:22:20;98191.56;;;12.58;78.97
33161;BME280;19522;45.656;11.302;2023-04-29T04:24:45;98155.72;;;12.34;78.99
33161;BME280;19522;45.656;11.302;2023-04-29T04:27:11;98192.34;;;12.38;79.26
33161;BME280;19522;45.656;11.302;2023-04-29T04:29:36;98188.34;;;12.21;79.93
33161;BME280;19522;45.656;11.302;2023-04-29T04:32:02;98207.78;;;12.04;81.40
33161;BME280;19522;45.656;11.302;2023-04-29T04:34:27;98199.50;;;11.91;81.76
33161;BME280;19522;45.656;11.302;2023-04-29T04:36:53;98205.75;;;11.78;81.95
33161;BME280;19522;45.656;11.302;2023-04-29T04:39:22;98200.22;;;11.64;82.13
33161;BME280;19522;45.656;11.302;2023-04-29T04:41:51;98174.22;;;11.55;82.82
33161;BME280;19522;45.656;11.302;2023-04-29T04:44:16;98192.41;;;11.96;81.50
33161;BME280;19522;45.656;11.302;2023-04-29T04:46:42;98178.78;;;11.83;81.57
33161;BME280;19522;45.656;11.302;2023-04-29T04:49:07;98181.53;;;11.96;81.15
33161;BME280;19522;45.656;11.302;2023-04-29T04:51:33;98169.31;;;11.72;81.65
33161;BME280;19522;45.656;11.302;2023-04-29T04:53:58;98198.66;;;11.83;82.77
33161;BME280;19522;45.656;11.302;2023-04-29T04:56:24;98188.22;;;11.94;82.37
33161;BME280;19522;45.656;11.302;2023-04-29T04:58:50;98184.97;;;12.19;81.33
33161;BME280;19522;45.656;11.302;2023-04-29T05:01:15;98163.53;;;11.95;82.15
33161;BME280;19522;45.656;11.302;2023-04-29T05:03:41;98190.63;;;12.10;81.30
33161;BME280;19522;45.656;11.302;2023-04-29T05:06:06;98189.66;;;11.90;83.41
33161;BME280;19522;45.656;11.302;2023-04-29T05:08:32;98183.97;;;11.78;84.54
33161;BME280;19522;45.656;11.302;2023-04-29T05:10:57;98176.06;;;11.90;84.14
33161;BME280;19522;45.656;11.302;2023-04-29T05:13:23;98193.72;;;12.07;83.91
33161;BME280;19522;45.656;11.302;2023-04-29T05:15:50;98200.28;;;12.20;83.47
33161;BME280;19522;45.656;11.302;2023-04-29T05:18:15;98133.13;;;11.72;83.60
33161;BME280;19522;45.656;11.302;2023-04-29T05:20:41;98185.19;;;12.17;83.27
33161;BME280;19522;45.656;11.302;2023-04-29T05:23:06;98158.63;;;12.19;82.95
33161;BME280;19522;45.656;11.302;2023-04-29T05:25:33;98183.75;;;12.28;82.21
33161;BME280;19522;45.656;11.302;2023-04-29T05:27:58;98161.56;;;12.31;81.80
33161;BME280;19522;45.656;11.302;2023-04-29T05:30:24;98169.31;;;12.41;81.43
33161;BME280;19522;45.656;11.302;2023-04-29T05:32:49;98137.47;;;12.28;80.73
33161;BME280;19522;45.656;11.302;2023-04-29T05:35:15;98187.38;;;12.62;80.24
33161;BME280;19522;45.656;11.302;2023-04-29T05:37:41;98178.16;;;12.63;79.97
33161;BME280;19522;45.656;11.302;2023-04-29T05:40:07;98173.13;;;12.60;79.88
33161;BME280;19522;45.656;11.302;2023-04-29T05:42:33;98179.84;;;12.57;79.92
33161;BME280;19522;45.656;11.302;2023-04-29T05:44:59;98185.28;;;12.84;79.22
33161;BME280;19522;45.656;11.302;2023-04-29T05:47:24;98123.03;;;12.41;79.60
33161;BME280;19522;45.656;11.302;2023-04-29T05:49:50;98211.28;;;12.93;79.36
33161;BME280;19522;45.656;11.302;2023-04-29T05:52:15;98214.84;;;12.94;79.45
33161;BME280;19522;45.656;11.302;2023-04-29T05:54:41;98208.16;;;12.97;79.25
33161;BME280;19522;45.656;11.302;2023-04-29T05:57:06;98209.81;;;13.04;78.81
33161;BME280;19522;45.656;11.302;2023-04-29T05:59:32;98209.41;;;13.07;78.82
33161;BME280;19522;45.656;11.302;2023-04-29T06:01:58;98195.53;;;13.09;78.52
33161;BME280;19522;45.656;11.302;2023-04-29T06:04:24;98213.38;;;13.12;78.39
33161;BME280;19522;45.656;11.302;2023-04-29T06:06:55;98208.34;;;13.15;78.53
33161;BME280;19522;45.656;11.302;2023-04-29T06:09:22;98228.91;;;13.18;78.50
33161;BME280;19522;45.656;11.302;2023-04-29T06:11:51;98208.13;;;13.17;77.35
33161;BME280;19522;45.656;11.302;2023-04-29T06:14:16;98204.94;;;13.33;75.64
33161;BME280;19522;45.656;11.302;2023-04-29T06:16:42;98225.53;;;13.49;74.69
33161;BME280;19522;45.656;11.302;2023-04-29T06:19:08;98229.50;;;13.53;73.44
33161;BME280;19522;45.656;11.302;2023-04-29T06:21:33;98224.88;;;13.54;73.44
33161;BME280;19522;45.656;11.302;2023-04-29T06:23:59;98214.44;;;13.44;73.42
33161;BME280;19522;45.656;11.302;2023-04-29T06:26:24;98211.22;;;13.61;72.50
33161;BME280;19522;45.656;11.302;2023-04-29T06:28:50;98212.50;;;13.58;73.14
33161;BME280;19522;45.656;11.302;2023-04-29T06:31:15;98231.19;;;13.48;73.93
33161;BME280;19522;45.656;11.302;2023-04-29T06:33:41;98227.81;;;13.59;74.77
33161;BME280;19522;45.656;11.302;2023-04-29T06:36:07;98230.31;;;13.74;74.57
33161;BME280;19522;45.656;11.302;2023-04-29T06:38:33;98181.44;;;13.59;73.07
33161;BME280;19522;45.656;11.302;2023-04-29T06:40:58;98220.38;;;13.93;72.30
33161;BME280;19522;45.656;11.302;2023-04-29T06:43:34;98204.97;;;13.47;72.70
33161;BME280;19522;45.656;11.302;2023-04-29T06:45:59;98224.81;;;13.81;73.07
33161;BME280;19522;45.656;11.302;2023-04-29T06:48:25;98154.84;;;13.41;72.85
33161;BME280;19522;45.656;11.302;2023-04-29T06:50:56;98214.63;;;14.08;71.14
33161;BME280;19522;45.656;11.302;2023-04-29T06:53:22;98203.81;;;14.33;68.00
33161;BME280;19522;45.656;11.302;2023-04-29T06:55:48;98205.78;;;14.20;68.69
33161;BME280;19522;45.656;11.302;2023-04-29T06:58:14;98206.13;;;14.30;68.91
33161;BME280;19522;45.656;11.302;2023-04-29T07:00:39;98202.72;;;13.96;66.89
33161;BME280;19522;45.656;11.302;2023-04-29T07:03:05;98196.72;;;13.74;66.60
33161;BME280;19522;45.656;11.302;2023-04-29T07:05:31;98189.94;;;13.90;67.10
33161;BME280;19522;45.656;11.302;2023-04-29T07:07:57;98189.97;;;13.83;66.89
33161;BME280;19522;45.656;11.302;2023-04-29T07:10:22;98168.91;;;13.97;64.98
33161;BME280;19522;45.656;11.302;2023-04-29T07:12:52;98158.00;;;13.90;64.65
33161;BME280;19522;45.656;11.302;2023-04-29T07:15:18;98160.97;;;13.82;65.03
33161;BME280;19522;45.656;11.302;2023-04-29T07:17:44;98139.16;;;13.82;65.33
33161;BME280;19522;45.656;11.302;2023-04-29T07:20:10;98189.78;;;14.23;65.77
33161;BME280;19522;45.656;11.302;2023-04-29T07:22:35;98194.03;;;14.12;63.74
33161;BME280;19522;45.656;11.302;2023-04-29T07:25:01;98191.59;;;14.36;65.52
33161;BME280;19522;45.656;11.302;2023-04-29T07:27:27;98189.72;;;14.69;61.98
33161;BME280;19522;45.656;11.302;2023-04-29T07:29:53;98184.25;;;14.69;61.80
33161;BME280;19522;45.656;11.302;2023-04-29T07:32:18;98194.78;;;14.97;59.54
33161;BME280;19522;45.656;11.302;2023-04-29T07:34:44;98190.31;;;15.03;59.91
33161;BME280;19522;45.656;11.302;2023-04-29T07:37:10;98155.50;;;14.91;60.33
33161;BME280;19522;45.656;11.302;2023-04-29T07:39:36;98155.66;;;14.96;55.28
33161;BME280;19522;45.656;11.302;2023-04-29T07:42:01;98185.28;;;15.00;56.65
33161;BME280;19522;45.656;11.302;2023-04-29T07:44:27;98173.66;;;14.79;56.97
33161;BME280;19522;45.656;11.302;2023-04-29T07:46:53;98181.22;;;15.09;56.98
33161;BME280;19522;45.656;11.302;2023-04-29T07:49:19;98159.97;;;15.30;57.09
33161;BME280;19522;45.656;11.302;2023-04-29T07:51:44;98199.03;;;15.37;55.93
33161;BME280;19522;45.656;11.302;2023-04-29T07:54:10;98199.81;;;15.44;56.44
33161;BME280;19522;45.656;11.302;2023-04-29T07:56:35;98209.16;;;15.36;57.03
33161;BME280;19522;45.656;11.302;2023-04-29T07:59:01;98215.72;;;15.54;56.32
33161;BME280;19522;45.656;11.302;2023-04-29T08:01:30;98199.03;;;15.37;55.97
33161;BME280;19522;45.656;11.302;2023-04-29T08:03:56;98183.16;;;15.02;56.93
33161;BME280;19522;45.656;11.302;2023-04-29T08:06:22;98214.88;;;15.09;57.02
33161;BME280;19522;45.656;11.302;2023-04-29T08:08:48;98223.91;;;15.10;58.58
33161;BME280;19522;45.656;11.302;2023-04-29T08:11:17;98199.72;;;15.07;59.29
33161;BME280;19522;45.656;11.302;2023-04-29T08:13:44;98209.84;;;15.06;59.95
33161;BME280;19522;45.656;11.302;2023-04-29T08:16:10;98223.34;;;15.01;58.39
33161;BME280;19522;45.656;11.302;2023-04-29T08:18:35;98222.06;;;15.04;59.91
33161;BME280;19522;45.656;11.302;2023-04-29T08:21:01;98193.94;;;14.64;55.82
33161;BME280;19522;45.656;11.302;2023-04-29T08:23:28;98210.75;;;15.00;56.05
33161;BME280;19522;45.656;11.302;2023-04-29T08:25:53;98227.31;;;15.31;56.60
33161;BME280;19522;45.656;11.302;2023-04-29T08:28:23;98227.78;;;15.21;56.17
33161;BME280;19522;45.656;11.302;2023-04-29T08:30:49;98182.81;;;15.17;56.18
33161;BME280;19522;45.656;11.302;2023-04-29T08:33:15;98223.72;;;15.30;54.42
33161;BME280;19522;45.656;11.302;2023-04-29T08:35:41;98235.41;;;15.19;56.41
33161;BME280;19522;45.656;11.302;2023-04-29T08:38:07;98234.69;;;15.49;55.71
33161;BME280;19522;45.656;11.302;2023-04-29T08:40:44;98200.81;;;15.24;56.06
33161;BME280;19522;45.656;11.302;2023-04-29T08:43:12;98237.53;;;15.42;57.12
33161;BME280;19522;45.656;11.302;2023-04-29T08:45:40;98218.28;;;15.49;56.27
33161;BME280;19522;45.656;11.302;2023-04-29T08:48:06;98236.47;;;15.43;57.83
33161;BME280;19522;45.656;11.302;2023-04-29T08:50:41;98239.69;;;15.77;57.12
33161;BME280;19522;45.656;11.302;2023-04-29T08:53:08;98236.91;;;15.84;57.41
33161;BME280;19522;45.656;11.302;2023-04-29T08:55:36;98248.34;;;15.74;57.42
33161;BME280;19522;45.656;11.302;2023-04-29T08:58:05;98249.53;;;15.85;56.73
33161;BME280;19522;45.656;11.302;2023-04-29T09:00:33;98243.63;;;15.63;56.23
33161;BME280;19522;45.656;11.302;2023-04-29T09:03:00;98223.31;;;15.70;57.32
33161;BME280;19522;45.656;11.302;2023-04-29T09:05:30;98238.50;;;15.92;57.79
33161;BME280;19522;45.656;11.302;2023-04-29T09:07:58;98236.47;;;16.06;56.49
33161;BME280;19522;45.656;11.302;2023-04-29T09:10:27;98209.09;;;15.87;57.90
33161;BME280;19522;45.656;11.302;2023-04-29T09:12:56;98247.03;;;16.20;56.93
33161;BME280;19522;45.656;11.302;2023-04-29T09:15:25;98232.34;;;16.15;57.71
33161;BME280;19522;45.656;11.302;2023-04-29T09:17:50;98223.94;;;16.28;56.64
33161;BME280;19522;45.656;11.302;2023-04-29T09:23:01;98243.97;;;16.59;57.33
33161;BME280;19522;45.656;11.302;2023-04-29T09:25:28;98238.41;;;16.66;54.91
33161;BME280;19522;45.656;11.302;2023-04-29T09:27:54;98198.44;;;16.58;55.78
33161;BME280;19522;45.656;11.302;2023-04-29T09:30:22;98233.50;;;16.98;54.76
33161;BME280;19522;45.656;11.302;2023-04-29T09:33:08;98210.03;;;16.72;56.76
33161;BME280;19522;45.656;11.302;2023-04-29T09:35:34;98213.31;;;16.93;56.16
33161;BME280;19522;45.656;11.302;2023-04-29T09:38:10;98234.69;;;16.60;56.28
33161;BME280;19522;45.656;11.302;2023-04-29T09:40:37;98239.47;;;16.65;56.44
33161;BME280;19522;45.656;11.302;2023-04-29T09:43:11;98235.50;;;16.61;57.09
33161;BME280;19522;45.656;11.302;2023-04-29T09:45:45;98230.28;;;16.71;56.89
33161;BME280;19522;45.656;11.302;2023-04-29T09:48:12;98239.38;;;16.72;58.56
33161;BME280;19522;45.656;11.302;2023-04-29T09:50:40;98242.94;;;16.72;56.10
33161;BME280;19522;45.656;11.302;2023-04-29T09:53:08;98146.72;;;16.19;55.48
33161;BME280;19522;45.656;11.302;2023-04-29T09:55:57;98233.56;;;16.92;56.69
33161;BME280;19522;45.656;11.302;2023-04-29T09:58:31;98228.16;;;16.73;56.50
33161;BME280;19522;45.656;11.302;2023-04-29T10:01:05;98226.66;;;16.89;56.98
33161;BME280;19522;45.656;11.302;2023-04-29T10:03:35;98187.13;;;16.66;54.92
33161;BME280;19522;45.656;11.302;2023-04-29T10:06:02;98190.56;;;16.62;57.33
33161;BME280;19522;45.656;11.302;2023-04-29T10:08:29;98214.16;;;16.93;56.40
33161;BME280;19522;45.656;11.302;2023-04-29T10:10:59;98223.91;;;16.77;56.55
33161;BME280;19522;45.656;11.302;2023-04-29T10:13:25;98210.84;;;17.03;56.56
33161;BME280;19522;45.656;11.302;2023-04-29T10:16:19;98198.47;;;17.12;55.84
33161;BME280;19522;45.656;11.302;2023-04-29T10:18:51;98204.56;;;16.72;56.93
33161;BME280;19522;45.656;11.302;2023-04-29T10:21:20;98205.00;;;17.00;56.13
33161;BME280;19522;45.656;11.302;2023-04-29T10:23:49;98135.38;;;16.46;56.74
33161;BME280;19522;45.656;11.302;2023-04-29T10:26:14;98179.59;;;16.62;56.46
33161;BME280;19522;45.656;11.302;2023-04-29T10:28:41;98190.16;;;16.89;57.74
33161;BME280;19522;45.656;11.302;2023-04-29T10:31:09;98193.13;;;16.87;57.01
33161;BME280;19522;45.656;11.302;2023-04-29T10:33:36;98192.59;;;16.97;57.52
33161;BME280;19522;45.656;11.302;2023-04-29T10:36:04;98181.75;;;17.02;56.56
33161;BME280;19522;45.656;11.302;2023-04-29T10:38:36;98028.13;;;16.55;55.33
33161;BME280;19522;45.656;11.302;2023-04-29T10:41:15;98173.41;;;17.44;55.23
33161;BME280;19522;45.656;11.302;2023-04-29T10:43:43;98170.38;;;17.82;55.39
33161;BME280;19522;45.656;11.302;2023-04-29T10:48:42;98153.75;;;18.00;56.91
33161;BME280;19522;45.656;11.302;2023-04-29T10:51:07;98151.88;;;18.18;54.54
33161;BME280;19522;45.656;11.302;2023-04-29T10:53:33;98168.13;;;18.19;53.20
33161;BME280;19522;45.656;11.302;2023-04-29T10:56:07;98147.91;;;17.97;53.65
33161;BME280;19522;45.656;11.302;2023-04-29T10:58:38;98171.06;;;18.30;52.68
33161;BME280;19522;45.656;11.302;2023-04-29T11:01:04;98181.09;;;18.36;53.38
33161;BME280;19522;45.656;11.302;2023-04-29T11:03:52;98168.56;;;18.28;52.44
33161;BME280;19522;45.656;11.302;2023-04-29T11:06:22;98165.28;;;18.14;52.35
33161;BME280;19522;45.656;11.302;2023-04-29T11:09:01;98160.59;;;18.15;54.49
33161;BME280;19522;45.656;11.302;2023-04-29T11:11:46;98163.22;;;18.50;54.21
33161;BME280;19522;45.656;11.302;2023-04-29T11:14:21;98156.97;;;17.97;53.75
33161;BME280;19522;45.656;11.302;2023-04-29T11:16:51;98139.28;;;18.05;54.44
33161;BME280;19522;45.656;11.302;2023-04-29T11:19:18;98123.78;;;17.87;52.72
33161;BME280;19522;45.656;11.302;2023-04-29T11:21:44;98152.88;;;18.41;52.74
33161;BME280;19522;45.656;11.302;2023-04-29T11:24:11;98133.53;;;18.35;53.32
33161;BME280;19522;45.656;11.302;2023-04-29T11:26:37;98136.63;;;18.56;53.01
33161;BME280;19522;45.656;11.302;2023-04-29T11:29:04;98141.09;;;18.74;54.02
33161;BME280;19522;45.656;11.302;2023-04-29T11:31:32;98135.75;;;19.02;52.00
33161;BME280;19522;45.656;11.302;2023-04-29T11:33:59;98136.41;;;18.75;51.46
33161;BME280;19522;45.656;11.302;2023-04-29T11:36:25;98145.41;;;18.87;51.16
33161;BME280;19522;45.656;11.302;2023-04-29T11:38:52;98142.53;;;18.94;51.26
33161;BME280;19522;45.656;11.302;2023-04-29T11:41:20;98137.84;;;18.94;52.47
33161;BME280;19522;45.656;11.302;2023-04-29T11:43:46;98132.94;;;19.13;52.79
33161;BME280;19522;45.656;11.302;2023-04-29T11:46:13;98119.34;;;19.07;50.25
33161;BME280;19522;45.656;11.302;2023-04-29T11:48:45;98120.47;;;18.60;51.47
33161;BME280;19522;45.656;11.302;2023-04-29T11:51:12;98073.16;;;18.41;50.81
33161;BME280;19522;45.656;11.302;2023-04-29T11:53:38;98126.59;;;18.96;52.20
33161;BME280;19522;45.656;11.302;2023-04-29T11:56:04;98134.69;;;19.03;52.24
33161;BME280;19522;45.656;11.302;2023-04-29T11:58:30;98143.09;;;19.30;52.13
33161;BME280;19522;45.656;11.302;2023-04-29T12:00:57;98132.84;;;19.48;49.73
33161;BME280;19522;45.656;11.302;2023-04-29T12:03:23;98113.13;;;19.78;50.14
33161;BME280;19522;45.656;11.302;2023-04-29T12:05:55;98126.00;;;19.50;48.60
33161;BME280;19522;45.656;11.302;2023-04-29T12:08:25;98146.13;;;19.51;50.80
33161;BME280;19522;45.656;11.302;2023-04-29T12:10:52;98138.03;;;19.44;49.93
33161;BME280;19522;45.656;11.302;2023-04-29T12:13:19;98140.34;;;19.52;48.40
33161;BME280;19522;45.656;11.302;2023-04-29T12:15:48;98080.53;;;19.25;49.06
33161;BME280;19522;45.656;11.302;2023-04-29T12:18:16;98074.78;;;19.49;49.74
33161;BME280;19522;45.656;11.302;2023-04-29T12:20:43;98145.81;;;19.69;48.28
33161;BME280;19522;45.656;11.302;2023-04-29T12:23:18;98127.19;;;19.76;48.26
33161;BME280;19522;45.656;11.302;2023-04-29T12:25:51;98085.47;;;19.45;48.87
33161;BME280;19522;45.656;11.302;2023-04-29T12:28:18;98137.22;;;20.05;49.47
33161;BME280;19522;45.656;11.302;2023-04-29T12:30:48;98143.09;;;19.91;48.62
33161;BME280;19522;45.656;11.302;2023-04-29T12:33:21;98109.97;;;19.86;48.56
33161;BME280;19522;45.656;11.302;2023-04-29T12:35:50;98132.19;;;20.51;47.25
33161;BME280;19522;45.656;11.302;2023-04-29T12:38:28;98127.22;;;20.81;46.98
33161;BME280;19522;45.656;11.302;2023-04-29T12:40:58;98088.28;;;20.77;46.90
33161;BME280;19522;45.656;11.302;2023-04-29T12:43:34;98091.91;;;20.50;46.25
33161;BME280;19522;45.656;11.302;2023-04-29T12:46:05;98132.44;;;20.22;47.27
33161;BME280;19522;45.656;11.302;2023-04-29T12:48:33;98123.19;;;20.34;47.36
33161;BME280;19522;45.656;11.302;2023-04-29T12:51:00;98114.56;;;20.30;47.17
33161;BME280;19522;45.656;11.302;2023-04-29T12:53:26;98091.25;;;19.66;47.92
33161;BME280;19522;45.656;11.302;2023-04-29T12:55:53;98114.38;;;20.10;47.45
33161;BME280;19522;45.656;11.302;2023-04-29T12:58:19;98103.19;;;20.21;47.04
33161;BME280;19522;45.656;11.302;2023-04-29T13:00:45;98116.09;;;20.43;47.32
33161;BME280;19522;45.656;11.302;2023-04-29T13:03:11;98084.16;;;19.92;47.36
33161;BME280;19522;45.656;11.302;2023-04-29T13:05:42;98105.03;;;19.88;48.69